Latest Weather Observations for Urandangi

IDQ60801

Issued at 3:32 pm EST Thursday 1 September 2016 (issued every 30 minutes, with the page automatically refreshed every 10 minutes)

About weather observations | Map of weather stations | Latest weather observations for QLD | Other Formats
Station Details ID: 037058 Name: URANDANGI AERODROME Lat: -21.60 Lon: 138.37 Height: 178.6 m
Data from the previous 72 hours. | See also: Recent months at Urandangi
Date/Time
EST
Temp
°C
App
Temp
°C
Dew
Point
°C
Rel
Hum
%
Delta-T
°C
Wind Press
QNH
hPa
Press
MSL
hPa
Rain since
9am
mm
Dir  Spd
km/h
Gust
km/h
Spd
kts
Gust
kts
01/03:30pm 32.4 29.4 12.6 30 11.9 NW 20 35 11 19 1007.4 1006.7 0.0
01/03:00pm 33.4 30.1 12.9 28 12.4 NNW 22 43 12 23 1007.8 1007.1 0.0
01/02:30pm 32.6 28.0 12.3 29 12.1 N 28 39 15 21 1008.4 1007.7 0.0
01/02:00pm 33.0 29.0 13.1 30 12.1 NNW 26 35 14 19 1009.1 1008.4 0.0
01/01:30pm 32.4 27.5 12.6 30 11.9 N 30 46 16 25 1009.7 1009.0 0.0
01/01:00pm 32.2 28.7 13.4 32 11.4 N 24 37 13 20 1010.5 1009.8 0.0
01/12:30pm 31.4 27.6 13.6 33 10.8 N 26 37 14 20 1011.1 1010.4 0.0
01/12:00pm 30.8 25.7 13.1 34 10.6 N 32 43 17 23 1011.8 1011.2 0.0
01/11:30am 30.4 26.1 13.2 35 10.3 N 28 37 15 20 1012.4 1011.7 0.0
01/11:00am 29.8 25.9 14.4 39 9.4 N 28 39 15 21 1013.1 1012.4 0.0
01/10:30am 28.7 24.2 13.8 40 9.0 N 30 41 16 22 1013.3 1012.6 0.0
01/10:00am 28.0 23.9 15.0 45 7.9 N 30 41 16 22 1013.4 1012.7 0.0
01/09:30am 27.1 23.4 15.1 47 7.3 N 28 35 15 19 1013.3 1012.9 0.0
01/09:00am 26.5 24.5 14.9 49 7.0 N 19 28 10 15 1013.6 1013.2 0.0
01/08:30am 25.3 23.5 14.4 50 6.5 N 17 24 9 13 1013.9 1013.5 0.0
01/08:00am 23.6 21.4 14.3 56 5.5 N 19 22 10 12 1013.6 1013.2 0.0
01/07:30am 21.9 20.5 15.5 67 3.9 NNE 17 22 9 12 1013.2 1012.8 0.0
01/07:00am 19.1 18.9 15.6 80 2.1 NE 11 11 6 6 1013.4 1013.0 0.0
01/06:30am 18.2 18.2 15.3 83 1.7 NE 9 9 5 5 1013.4 1013.0 0.0
01/06:00am 18.2 20.0 15.5 84 1.6 CALM 0 0 0 0 1013.2 1012.8 0.0
01/05:30am 18.9 20.8 15.8 82 1.9 CALM 0 0 0 0 1012.8 1012.4 0.0
01/05:00am 19.1 21.0 15.8 81 2.0 CALM 0 0 0 0 1012.7 1012.3 0.0
01/04:30am 19.1 20.2 15.6 80 2.1 S 4 6 2 3 1012.8 1012.4 0.0
01/04:00am 19.5 20.7 15.8 79 2.2 SE 4 4 2 2 1013.0 1012.6 0.0
01/03:30am 19.4 20.1 15.5 78 2.3 ESE 6 6 3 3 1013.2 1012.8 0.0
01/03:00am 19.8 20.2 15.4 76 2.6 ESE 7 9 4 5 1013.6 1013.2 0.0
01/02:30am 21.2 21.8 15.7 71 3.3 SE 7 7 4 4 1014.3 1013.9 0.0
01/02:00am 21.8 22.3 15.6 68 3.7 SE 7 7 4 4 1014.5 1014.1 0.0
01/01:30am 23.1 23.7 15.9 64 4.4 ESE 7 7 4 4 1014.7 1014.3 0.0
01/01:00am 23.6 23.9 15.9 62 4.7 SE 9 13 5 7 1015.0 1014.6 0.0
01/12:30am 23.7 23.5 15.7 61 4.9 SE 11 13 6 7 1015.2 1014.8 0.0
01/12:00am 24.1 23.5 15.6 59 5.2 SE 13 17 7 9 1015.5 1015.1 0.0
 
Date/Time
EST
Temp
°C
App
Temp
°C
Dew
Point
°C
Rel
Hum
%
Delta-T
°C
Wind Press
QNH
hPa
Press
MSL
hPa
Rain since
9am
mm
Dir  Spd
km/h
Gust
km/h
Spd
kts
Gust
kts
31/11:30pm 24.5 23.8 15.4 57 5.5 SE 13 19 7 10 1015.7 1015.4 0.0
31/11:00pm 24.7 24.3 15.3 56 5.7 SSE 11 15 6 8 1015.9 1015.6 0.0
31/10:30pm 25.0 24.1 14.8 53 6.1 SSE 13 19 7 10 1016.0 1015.7 0.0
31/10:00pm 25.1 24.9 14.6 52 6.3 SSE 9 13 5 7 1016.0 1015.7 0.0
31/09:30pm 25.0 24.9 15.0 53 6.0 SSE 9 9 5 5 1015.8 1015.5 0.0
31/09:00pm 24.7 25.1 15.3 56 5.7 SSE 7 9 4 5 1015.6 1015.3 0.0
31/08:30pm 25.3 25.7 15.3 54 6.1 SSE 7 9 4 5 1015.6 1015.3 0.0
31/08:00pm 25.5 26.0 14.9 52 6.4 SE 6 6 3 3 1015.3 1014.9 0.0
31/07:30pm 26.8 28.2 14.5 46 7.4 CALM 0 0 0 0 1015.0 1014.6 0.0
31/07:00pm 27.9 28.9 13.1 40 8.8 CALM 0 0 0 0 1014.9 1014.5 0.0
31/06:30pm 28.6 28.5 13.3 39 9.1 NW 6 11 3 6 1014.6 1014.2 0.0
31/06:00pm 29.8 29.3 12.7 35 10.2 NNW 7 11 4 6 1014.4 1014.0 0.0
31/05:30pm 30.2 30.5 13.5 36 10.1 ENE 4 9 2 5 1014.4 1014.0 0.0
31/05:00pm 30.5 30.4 13.3 35 10.3 W 6 13 3 7 1014.4 1014.0 0.0
31/04:30pm 30.4 29.6 12.8 34 10.5 W 9 19 5 10 1014.5 1014.1 0.0
31/04:00pm 30.7 29.9 13.0 33 10.6 W 9 17 5 9 1014.6 1014.2 0.0
31/03:30pm 30.8 30.4 14.0 36 10.2 SW 9 20 5 11 1014.9 1014.5 0.0
31/03:00pm 29.9 29.1 12.8 35 10.2 NNW 9 17 5 9 1015.3 1014.9 0.0
31/02:30pm 29.8 29.2 13.5 36 9.8 W 9 24 5 13 1015.9 1015.6 0.0
31/02:00pm 29.8 29.7 14.0 38 9.6 NW 7 13 4 7 1016.3 1016.0 0.0
31/01:30pm 28.8 28.8 13.5 39 9.2 WNW 6 11 3 6 1016.8 1016.5 0.0
31/01:00pm 28.2 28.5 14.4 42 8.4 SSE 6 17 3 9 1017.1 1016.8 0.0
31/12:30pm 27.2 26.5 14.2 44 7.8 ESE 11 15 6 8 1017.6 1017.3 0.0
31/12:00pm 26.2 25.7 15.0 50 6.8 ESE 11 15 6 8 1018.5 1018.1 0.0
31/11:30am 25.2 24.1 14.3 50 6.5 ESE 13 19 7 10 1019.0 1018.6 0.0
31/11:00am 24.2 22.8 14.6 55 5.7 SE 15 19 8 10 1019.3 1018.9 0.0
31/10:30am 23.3 21.7 14.0 56 5.5 ESE 15 19 8 10 1019.5 1019.1 0.0
31/10:00am 23.0 20.7 14.0 57 5.3 ESE 19 24 10 13 1019.6 1019.2 0.0
31/09:30am 22.3 20.7 13.9 59 4.9 ESE 15 20 8 11 1019.7 1019.3 0.0
31/09:00am 21.7 20.0 13.6 60 4.7 ESE 15 20 8 11 1019.7 1019.3 0.0
31/08:30am 21.5 19.5 13.9 62 4.4 ESE 17 24 9 13 1019.5 1019.1 0.0
31/08:00am 20.9 19.7 14.1 65 4.0 SE 13 17 7 9 1019.4 1019.0 0.0
31/07:30am 20.6 19.7 13.8 65 4.0 SE 11 17 6 9 1019.3 1018.9 0.0
31/07:00am 20.6 20.1 13.8 65 3.9 SE 9 13 5 7 1019.1 1018.7 0.0
31/06:30am 20.3 20.1 13.7 66 3.8 SSE 7 13 4 7 1018.8 1018.4 0.0
31/06:00am 20.5 19.4 13.2 63 4.2 S 11 13 6 7 1018.5 1018.1 0.0
31/05:30am 20.8 20.1 13.3 62 4.3 S 9 15 5 8 1018.3 1017.9 0.0
31/05:00am 21.3 20.2 13.2 60 4.7 S 11 19 6 10 1017.9 1017.5 0.0
31/04:30am 21.7 19.2 13.6 60 4.7 S 19 24 10 13 1017.6 1017.3 0.0
31/04:00am 21.6 21.0 14.5 64 4.2 SSW 11 17 6 9 1017.5 1017.2 0.0
31/03:30am 21.0 21.9 15.1 69 3.5 WSW 4 6 2 3 1017.3 1017.0 0.0
31/03:00am 22.4 22.9 15.0 63 4.4 ENE 6 6 3 3 1017.0 1016.7 0.0
31/02:30am 22.2 22.5 14.6 62 4.5 ENE 6 7 3 4 1016.9 1016.6 0.0
31/02:00am 21.6 21.6 14.3 63 4.3 E 7 9 4 5 1016.8 1016.5 0.0
31/01:30am 23.1 23.3 14.1 57 5.3 E 6 7 3 4 1017.0 1016.7 0.0
31/01:00am 23.5 23.4 13.9 55 5.7 SE 7 9 4 5 1017.3 1017.0 0.0
31/12:30am 24.6 23.6 13.5 50 6.5 SSE 11 15 6 8 1017.3 1017.0 0.0
31/12:00am 25.2 24.6 13.4 48 6.9 S 9 13 5 7 1017.3 1017.0 0.0
 
Date/Time
EST
Temp
°C
App
Temp
°C
Dew
Point
°C
Rel
Hum
%
Delta-T
°C
Wind Press
QNH
hPa
Press
MSL
hPa
Rain since
9am
mm
Dir  Spd
km/h
Gust
km/h
Spd
kts
Gust
kts
30/11:30pm 24.3 24.4 13.8 52 6.2 W 6 6 3 3 1016.9 1016.6 0.0
30/11:00pm 23.6 24.1 14.0 55 5.7 W 4 9 2 5 1016.8 1016.5 0.0
30/10:30pm 24.1 24.1 13.6 52 6.2 WNW 6 6 3 3 1016.7 1016.4 0.0
30/10:00pm 23.8 23.8 13.6 52 6.0 WSW 6 7 3 4 1016.4 1016.1 0.0
30/09:30pm 25.1 24.7 13.0 47 7.1 NNE 7 9 4 5 1016.3 1016.0 0.0
30/09:00pm 25.4 25.0 12.9 45 7.3 NNE 7 9 4 5 1016.2 1015.9 0.0
30/08:30pm 25.8 25.1 13.3 46 7.4 NNE 9 9 5 5 1015.8 1015.5 0.0
30/08:00pm 26.4 25.7 13.2 44 7.8 NNE 9 9 5 5 1015.5 1015.1 0.0
30/07:30pm 26.8 26.0 12.8 42 8.2 NNE 9 9 5 5 1015.0 1014.6 0.0
30/07:00pm 28.1 27.4 12.0 36 9.4 NNE 7 7 4 4 1014.7 1014.3 0.0
30/06:30pm 29.8 28.5 11.3 32 10.7 N 9 13 5 7 1014.3 1013.9 0.0
30/06:00pm 30.6 29.3 11.1 30 11.3 NNE 9 11 5 6 1014.0 1013.6 0.0
30/05:30pm 31.7 28.7 9.3 25 12.7 N 15 20 8 11 1013.8 1013.4 0.0
30/05:00pm 32.6 30.0 9.4 24 13.2 NNW 13 19 7 10 1013.6 1013.2 0.0
30/04:30pm 32.3 29.4 9.8 25 12.9 NW 15 24 8 13 1013.5 1013.1 0.0
30/04:00pm 32.9 29.8 10.3 25 13.1 N 17 26 9 14 1013.2 1012.8 0.0
30/03:30pm 33.1 29.3 9.8 24 13.4 NW 20 37 11 20 1013.6 1013.2 0.0
30/03:00pm 32.7 28.6 10.1 25 13.0 NNW 22 33 12 18 1013.9 1013.5 0.0
30/02:30pm 33.3 29.7 10.6 25 13.2 NNW 20 32 11 17 1014.3 1013.9 0.0
30/02:00pm 32.5 27.8 10.5 26 12.8 NNW 26 37 14 20 1014.8 1014.4 0.0
30/01:30pm 31.3 26.8 10.1 27 12.2 NNW 24 30 13 16 1015.5 1015.1 0.0
30/01:00pm 31.8 28.2 10.5 27 12.3 NNW 20 35 11 19 1015.9 1015.6 0.0
30/12:30pm 31.5 28.4 12.3 31 11.4 NNW 20 37 11 20 1016.3 1016.0 0.0
30/12:00pm 31.5 28.2 12.8 32 11.2 NNW 22 33 12 18 1016.7 1016.4 0.0
30/11:30am 31.1 27.4 13.8 34 10.5 N 26 39 14 21 1017.1 1016.8 0.0
30/11:00am 30.1 25.7 14.2 38 9.7 NNW 30 41 16 22 1017.5 1017.2 0.0
30/10:30am 29.4 24.9 14.8 41 8.9 N 32 41 17 22 1017.7 1017.4 0.0
30/10:00am 28.0 23.7 14.3 43 8.3 N 30 43 16 23 1017.9 1017.5 0.0
30/09:30am 26.8 22.5 14.5 46 7.4 N 30 41 16 22 1017.5 1017.2 0.0
30/09:00am 25.9 22.5 14.7 50 6.7 N 26 35 14 19 1017.5 1017.2 0.0
30/08:30am 23.6 21.2 15.4 60 5.0 N 22 33 12 18 1017.5 1017.2 0.0
30/08:00am 22.3 20.9 15.6 66 4.0 N 17 24 9 13 1017.3 1017.0 0.0
30/07:30am 20.0 19.6 15.2 74 2.9 N 11 15 6 8 1017.1 1016.8 0.0
30/07:00am 19.9 19.4 14.9 73 2.9 N 11 15 6 8 1016.8 1016.5 0.0
30/06:30am 20.8 20.0 15.1 70 3.4 N 13 19 7 10 1016.5 1016.2 0.0
30/06:00am 21.0 20.1 14.9 68 3.6 N 13 17 7 9 1015.9 1015.6 0.0
30/05:30am 20.9 20.4 14.8 68 3.6 N 11 15 6 8 1015.5 1015.1 0.0
30/05:00am 20.8 20.2 14.7 68 3.6 N 11 15 6 8 1015.0 1014.6 0.0
30/04:30am 19.8 19.4 14.2 70 3.3 N 9 11 5 6 1014.7 1014.3 0.0
30/04:00am 19.9 19.0 13.6 67 3.6 NNW 11 13 6 7 1014.4 1014.0 0.0
30/03:30am 20.5 19.1 13.5 64 4.0 N 13 17 7 9 1014.1 1013.7 0.0
30/03:00am 20.9 19.1 13.4 62 4.3 NNE 15 20 8 11 1014.0 1013.6 0.0
30/02:30am 20.9 18.5 12.8 60 4.6 N 17 22 9 12 1014.1 1013.7 0.0
30/02:00am 20.9 18.9 12.6 59 4.7 N 15 19 8 10 1014.4 1014.0 0.0
30/01:30am 20.8 19.5 12.5 59 4.7 NNW 11 15 6 8 1014.7 1014.3 0.0
30/01:00am 19.9 18.2 12.4 62 4.2 NNE 13 17 7 9 1014.7 1014.3 0.0
30/12:30am 20.4 18.9 11.9 58 4.8 N 11 13 6 7 1014.8 1014.4 0.0
30/12:00am 20.7 19.5 11.6 56 5.1 N 9 13 5 7 1014.9 1014.5 0.0
 
Date/Time
EST
Temp
°C
App
Temp
°C
Dew
Point
°C
Rel
Hum
%
Delta-T
°C
Wind Press
QNH
hPa
Press
MSL
hPa
Rain since
9am
mm
Dir  Spd
km/h
Gust
km/h
Spd
kts
Gust
kts
29/11:30pm 21.3 19.3 11.6 54 5.4 N 13 15 7 8 1014.7 1014.3 0.0
29/11:00pm 22.0 19.6 11.4 51 5.9 N 15 20 8 11 1014.8 1014.4 0.0
29/10:30pm 21.8 20.2 11.5 52 5.8 N 11 13 6 7 1014.7 1014.3 0.0
29/10:00pm 21.1 18.7 11.4 54 5.4 NNE 15 17 8 9 1014.4 1014.0 0.0
29/09:30pm 21.7 20.3 10.8 50 6.0 NNE 9 9 5 5 1014.4 1014.0 0.0
29/09:00pm 22.0 19.6 10.2 47 6.5 NNE 13 13 7 7 1014.0 1013.6 0.0
29/08:30pm 23.2 20.8 9.9 43 7.3 NNE 13 15 7 8 1013.7 1013.3 0.0
29/08:00pm 23.6 21.3 10.3 43 7.4 NNE 13 15 7 8 1013.3 1012.9 0.0
29/07:30pm 23.8 21.5 9.0 39 8.0 NNE 11 13 6 7 1013.1 1012.7 0.0
29/07:00pm 26.9 24.4 8.4 31 10.1 N 11 13 6 7 1012.8 1012.4 0.0
29/06:30pm 29.2 25.8 7.7 26 11.7 N 15 20 8 11 1012.5 1012.1 0.0
29/06:00pm 30.7 26.0 7.8 24 12.6 N 22 32 12 17 1012.2 1011.8 0.0
29/05:30pm 31.2 26.6 8.2 24 12.8 N 22 32 12 17 1012.1 1011.7 0.0
29/05:00pm 31.5 26.6 8.5 24 12.9 N 24 33 13 18 1012.1 1011.7 0.0
29/04:30pm 31.5 25.8 8.5 24 12.9 N 28 37 15 20 1012.1 1011.7 0.0
29/04:00pm 31.6 26.7 9.8 26 12.5 N 26 39 14 21 1012.2 1011.8 0.0

Other Formats:

Comma delimited format used in spreadsheet applications
http://www.bom.gov.au/fwo/IDQ60801/IDQ60801.94344.axf

JavaScript Object Notation format (JSON) in row-major order
http://www.bom.gov.au/fwo/IDQ60801/IDQ60801.94344.json